Time;durP1;ratioP1;P1;durP2;ratioP2;P2;SDS_P1;SDS_P2;PMS_P1;PMS_P2;Temp;Humidity;BMP_temperature;BMP_pressure;BME280_temperature;BME280_humidity;BME280_pressure;Samples;Min_cycle;Max_cycle;Signal;HPM_P1;HPM_P2
2020/12/07 00:02:22;;;;;;;9.07;8.30;;;2.80;99.90;;;;;;5123471;27;20978;-89
2020/12/07 00:04:49;;;;;;;9.97;9.17;;;2.80;99.90;;;;;;5122548;27;21169;-89
2020/12/07 00:07:15;;;;;;;10.07;9.27;;;2.70;99.90;;;;;;5120206;27;20633;-89
2020/12/07 00:09:42;;;;;;;12.03;11.03;;;2.90;99.90;;;;;;5120985;27;20662;-89
2020/12/07 00:12:09;;;;;;;10.40;9.50;;;2.90;99.90;;;;;;5118695;27;20659;-88
2020/12/07 00:14:36;;;;;;;12.10;11.17;;;3.00;99.90;;;;;;5130020;27;21273;-88
2020/12/07 00:17:02;;;;;;;12.17;10.97;;;2.80;99.90;;;;;;5126308;27;20718;-88
2020/12/07 00:19:29;;;;;;;12.60;11.53;;;2.70;99.90;;;;;;5120796;27;20620;-86
2020/12/07 00:21:55;;;;;;;12.30;11.30;;;2.70;99.90;;;;;;5120538;27;20635;-87
2020/12/07 00:24:21;;;;;;;13.40;12.23;;;2.70;99.90;;;;;;5121780;27;20626;-86
2020/12/07 00:26:48;;;;;;;12.80;11.70;;;2.60;99.90;;;;;;5124903;27;20631;-87
2020/12/07 00:29:15;;;;;;;10.90;10.00;;;2.70;99.90;;;;;;5113035;27;20629;-87
2020/12/07 00:31:42;;;;;;;11.53;10.63;;;2.60;99.90;;;;;;5128401;27;20975;-87
2020/12/07 00:34:08;;;;;;;13.07;11.97;;;2.70;99.90;;;;;;5109734;27;20652;-87
2020/12/07 00:36:35;;;;;;;12.80;11.47;;;2.80;99.90;;;;;;5126090;27;20852;-89
2020/12/07 00:39:01;;;;;;;10.90;10.10;;;2.80;99.90;;;;;;5129278;27;20610;-88
2020/12/07 00:41:29;;;;;;;11.83;10.90;;;2.90;99.90;;;;;;5107328;27;20724;-88
2020/12/07 00:43:57;;;;;;;10.27;9.37;;;2.70;99.90;;;;;;5124392;27;20614;-88
2020/12/07 00:46:24;;;;;;;12.20;11.10;;;2.80;99.90;;;;;;5123976;27;21133;-89
2020/12/07 00:48:51;;;;;;;11.43;10.53;;;2.70;99.90;;;;;;5127170;27;21069;-87
2020/12/07 00:51:19;;;;;;;11.83;10.83;;;2.80;99.90;;;;;;5124018;27;20658;-88
2020/12/07 00:53:45;;;;;;;12.03;10.90;;;2.90;99.90;;;;;;5105981;27;20620;-87
2020/12/07 00:56:15;;;;;;;11.47;10.57;;;2.80;99.90;;;;;;5128624;27;20641;-87
2020/12/07 00:58:42;;;;;;;11.57;10.67;;;2.80;99.90;;;;;;5125659;27;20619;-87
2020/12/07 01:01:10;;;;;;;11.23;10.33;;;2.70;99.90;;;;;;5125925;27;20635;-87
2020/12/07 01:03:37;;;;;;;11.90;11.00;;;2.80;99.90;;;;;;5119445;27;20692;-88
2020/12/07 01:06:04;;;;;;;12.20;11.20;;;2.70;99.90;;;;;;5131944;27;20633;-89
2020/12/07 01:08:30;;;;;;;12.43;11.33;;;2.70;99.90;;;;;;5126111;27;20630;-89
2020/12/07 01:10:57;;;;;;;9.90;9.20;;;2.70;99.90;;;;;;5126930;27;20674;-88
2020/12/07 01:13:23;;;;;;;9.43;8.73;;;2.90;99.90;;;;;;5127650;27;20736;-88
2020/12/07 01:15:50;;;;;;;8.27;7.67;;;2.90;99.90;;;;;;5125059;27;20618;-88
2020/12/07 01:18:16;;;;;;;9.43;8.63;;;2.90;99.90;;;;;;5117544;27;20676;-86
2020/12/07 01:20:44;;;;;;;9.57;8.80;;;2.90;99.90;;;;;;5128624;27;20665;-87
2020/12/07 01:23:10;;;;;;;9.90;9.20;;;2.80;99.90;;;;;;5120909;27;20617;-87
2020/12/07 01:25:37;;;;;;;8.97;8.27;;;2.90;99.90;;;;;;5123827;27;20620;-87
2020/12/07 01:28:04;;;;;;;9.07;8.37;;;2.90;99.90;;;;;;5129119;27;20601;-87
2020/12/07 01:30:30;;;;;;;10.03;9.30;;;3.00;99.90;;;;;;5127079;27;20650;-87
2020/12/07 01:32:56;;;;;;;8.97;8.23;;;3.00;99.90;;;;;;5131456;27;20627;-88
2020/12/07 01:35:22;;;;;;;8.70;7.93;;;3.00;99.90;;;;;;5126753;27;20626;-87
2020/12/07 01:37:50;;;;;;;8.73;8.03;;;3.10;99.90;;;;;;5122988;27;20616;-88
2020/12/07 01:40:16;;;;;;;8.80;8.20;;;3.10;99.90;;;;;;5130881;27;20741;-89
2020/12/07 01:42:42;;;;;;;8.30;7.60;;;3.10;99.90;;;;;;5123077;27;20615;-88
2020/12/07 01:45:09;;;;;;;7.20;6.70;;;3.10;99.90;;;;;;5125825;27;20611;-88
2020/12/07 01:47:35;;;;;;;7.47;6.87;;;3.00;99.90;;;;;;5124803;27;20965;-88
2020/12/07 01:50:03;;;;;;;7.93;7.33;;;3.00;99.90;;;;;;5125186;27;21534;-87
2020/12/07 01:52:29;;;;;;;6.53;6.03;;;3.00;99.90;;;;;;5122367;27;20659;-88
2020/12/07 01:54:56;;;;;;;6.30;5.80;;;3.00;99.90;;;;;;5120623;27;20630;-89
2020/12/07 01:57:22;;;;;;;7.40;6.80;;;2.80;99.90;;;;;;5122113;27;20619;-88
2020/12/07 01:59:49;;;;;;;7.67;7.07;;;2.80;99.90;;;;;;5121764;27;20627;-88
2020/12/07 02:02:15;;;;;;;7.20;6.60;;;2.90;99.90;;;;;;5117794;27;20631;-88
2020/12/07 02:04:41;;;;;;;7.37;6.77;;;2.90;99.90;;;;;;5121864;27;20686;-89
2020/12/07 02:07:16;;;;;;;7.03;6.40;;;2.90;99.90;;;;;;5124228;27;20626;-88
2020/12/07 02:09:42;;;;;;;6.30;5.80;;;3.00;99.90;;;;;;5123777;27;21020;-89
2020/12/07 02:12:10;;;;;;;6.30;5.80;;;2.90;99.90;;;;;;5124527;27;20691;-88
2020/12/07 02:14:36;;;;;;;5.40;4.97;;;2.90;99.90;;;;;;5132273;27;20642;-89
2020/12/07 02:17:03;;;;;;;6.07;5.57;;;3.00;99.90;;;;;;5103301;27;20634;-87
2020/12/07 02:19:29;;;;;;;4.60;4.30;;;3.00;99.90;;;;;;5117144;27;20630;-88
2020/12/07 02:21:56;;;;;;;5.30;4.87;;;3.00;99.90;;;;;;5122551;27;20615;-89
2020/12/07 02:24:23;;;;;;;4.00;3.70;;;3.00;99.90;;;;;;5122907;27;20697;-88
2020/12/07 02:26:49;;;;;;;3.87;3.60;;;2.90;99.90;;;;;;5119267;27;20624;-88
2020/12/07 02:29:16;;;;;;;4.27;3.97;;;3.00;99.90;;;;;;5129755;27;20631;-87
2020/12/07 02:31:42;;;;;;;3.80;3.47;;;3.10;99.90;;;;;;5122333;27;20652;-89
2020/12/07 02:34:08;;;;;;;4.10;3.80;;;3.10;99.90;;;;;;5121847;27;20627;-88
2020/12/07 02:36:34;;;;;;;3.60;3.30;;;3.00;99.90;;;;;;5117469;27;20635;-88
2020/12/07 02:39:02;;;;;;;3.40;3.20;;;3.10;99.90;;;;;;5122169;27;20619;-89
2020/12/07 02:41:28;;;;;;;3.00;2.80;;;3.10;99.90;;;;;;5125576;27;20646;-89
2020/12/07 02:43:54;;;;;;;3.80;3.50;;;3.10;99.90;;;;;;5123939;27;20648;-89
2020/12/07 02:46:20;;;;;;;3.23;3.03;;;3.30;99.90;;;;;;5124430;27;20603;-89
2020/12/07 02:48:47;;;;;;;3.27;3.07;;;3.20;99.90;;;;;;5099029;27;20607;-89
2020/12/07 02:51:13;;;;;;;3.40;3.10;;;3.20;99.90;;;;;;5126193;27;20670;-89
2020/12/07 02:53:39;;;;;;;3.23;3.03;;;3.40;99.90;;;;;;5102549;27;21027;-89
2020/12/07 02:56:07;;;;;;;3.53;3.23;;;3.30;99.90;;;;;;5124938;27;20654;-89
2020/12/07 02:58:33;;;;;;;3.27;3.07;;;3.40;99.90;;;;;;5116223;27;20982;-87
2020/12/07 03:00:59;;;;;;;3.73;3.50;;;3.40;99.90;;;;;;5129485;27;20665;-87
2020/12/07 03:03:26;;;;;;;3.67;3.37;;;3.30;99.90;;;;;;5125930;27;20629;-87
2020/12/07 03:05:52;;;;;;;3.57;3.27;;;3.30;99.90;;;;;;5129954;27;20635;-86
2020/12/07 03:08:18;;;;;;;2.83;2.73;;;3.40;99.90;;;;;;5123625;27;20990;-87
2020/12/07 03:10:45;;;;;;;3.30;3.10;;;3.40;99.90;;;;;;5127545;27;20647;-87
2020/12/07 03:13:12;;;;;;;3.10;2.90;;;3.30;99.90;;;;;;5105525;27;20661;-87
2020/12/07 03:15:38;;;;;;;3.00;2.80;;;3.20;99.90;;;;;;5128645;27;20983;-87
2020/12/07 03:18:04;;;;;;;2.80;2.63;;;3.40;99.90;;;;;;5135046;27;20661;-88
2020/12/07 03:20:31;;;;;;;3.40;3.20;;;3.30;99.90;;;;;;5129655;27;20666;-87
2020/12/07 03:22:57;;;;;;;2.93;2.73;;;3.40;99.90;;;;;;5132919;27;20622;-87
2020/12/07 03:25:23;;;;;;;3.57;3.27;;;3.40;99.90;;;;;;5125441;27;20625;-87
2020/12/07 03:27:50;;;;;;;3.07;2.87;;;3.50;99.90;;;;;;5105971;27;20627;-87
2020/12/07 03:30:17;;;;;;;3.00;2.80;;;3.30;99.90;;;;;;5130721;27;20634;-88
2020/12/07 03:32:45;;;;;;;2.97;2.77;;;3.40;99.90;;;;;;5113996;27;20662;-87
2020/12/07 03:35:11;;;;;;;2.63;2.43;;;3.40;99.90;;;;;;5118551;27;20619;-87
2020/12/07 03:37:38;;;;;;;3.10;2.90;;;3.40;99.90;;;;;;5114658;27;20706;-86
2020/12/07 03:40:05;;;;;;;2.87;2.67;;;3.50;99.90;;;;;;5119105;27;21242;-86
2020/12/07 03:42:31;;;;;;;3.07;2.80;;;3.40;99.90;;;;;;5120392;27;20623;-87
2020/12/07 03:44:58;;;;;;;5.50;2.63;;;3.40;99.90;;;;;;5124815;27;20618;-88
2020/12/07 03:47:27;;;;;;;2.90;2.70;;;3.60;99.90;;;;;;5120980;27;20606;-87
2020/12/07 03:49:53;;;;;;;3.07;2.87;;;3.50;99.90;;;;;;5120456;27;20630;-86
2020/12/07 03:52:19;;;;;;;3.43;3.13;;;3.40;99.90;;;;;;5126573;27;21220;-87
2020/12/07 03:54:45;;;;;;;3.10;2.90;;;3.50;99.90;;;;;;5130956;27;20627;-87
2020/12/07 03:57:12;;;;;;;3.03;2.83;;;3.30;99.90;;;;;;5118438;27;20613;-86
2020/12/07 03:59:38;;;;;;;3.07;2.87;;;3.30;99.90;;;;;;5119781;27;20641;-87
2020/12/07 04:02:05;;;;;;;2.93;2.73;;;3.40;99.90;;;;;;5110780;27;20623;-87
2020/12/07 04:04:40;;;;;;;3.20;2.97;;;3.40;99.90;;;;;;5127662;27;20618;-87
2020/12/07 04:07:06;;;;;;;4.23;2.50;;;3.40;99.90;;;;;;5128475;27;20627;-88
2020/12/07 04:09:32;;;;;;;3.13;2.93;;;3.50;99.90;;;;;;5129341;27;21152;-89
2020/12/07 04:12:00;;;;;;;3.43;3.13;;;3.40;99.90;;;;;;5139504;27;20661;-88
2020/12/07 04:14:28;;;;;;;3.47;3.17;;;3.40;99.90;;;;;;5125945;27;20641;-88
2020/12/07 04:16:54;;;;;;;3.50;3.20;;;3.40;99.90;;;;;;5134594;27;20604;-88
2020/12/07 04:19:20;;;;;;;2.80;2.60;;;3.50;99.90;;;;;;5130640;27;20966;-88
2020/12/07 04:21:48;;;;;;;3.20;2.90;;;3.50;99.90;;;;;;5132232;27;21071;-87
2020/12/07 04:24:14;;;;;;;3.00;2.73;;;3.30;99.90;;;;;;5127818;27;20639;-88
2020/12/07 04:26:40;;;;;;;3.13;2.90;;;3.30;99.90;;;;;;5128985;27;21161;-87
2020/12/07 04:29:07;;;;;;;3.00;2.70;;;3.30;99.90;;;;;;5127684;27;20622;-87
2020/12/07 04:31:33;;;;;;;2.73;2.53;;;3.40;99.90;;;;;;5127616;27;21040;-88
2020/12/07 04:33:59;;;;;;;3.50;3.00;;;3.50;99.90;;;;;;5125105;27;20632;-88
2020/12/07 04:36:26;;;;;;;3.10;2.80;;;3.50;99.90;;;;;;5128402;27;20623;-87
2020/12/07 04:38:53;;;;;;;2.70;2.50;;;3.60;99.90;;;;;;5126778;27;20630;-90
2020/12/07 04:41:19;;;;;;;3.30;3.00;;;3.70;99.90;;;;;;5131397;27;20650;-90
2020/12/07 04:43:49;;;;;;;3.23;2.90;;;3.70;99.90;;;;;;5133905;27;20627;-90
2020/12/07 04:46:15;;;;;;;2.87;2.30;;;3.80;99.90;;;;;;5130315;27;20583;-90
2020/12/07 04:48:42;;;;;;;2.23;2.03;;;3.80;99.90;;;;;;5123375;27;20630;-89
2020/12/07 04:51:10;;;;;;;2.63;2.43;;;3.80;99.90;;;;;;5129644;27;20982;-89
2020/12/07 04:53:38;;;;;;;2.83;2.63;;;3.80;99.90;;;;;;5110822;27;20626;-89
2020/12/07 04:56:06;;;;;;;2.70;2.50;;;3.70;99.90;;;;;;5127778;27;20634;-89
2020/12/07 04:58:34;;;;;;;3.23;2.97;;;3.70;99.90;;;;;;5129426;27;20952;-88
2020/12/07 05:01:01;;;;;;;3.37;3.10;;;3.70;99.90;;;;;;5129471;27;20662;-89
2020/12/07 05:03:27;;;;;;;7.20;6.47;;;3.70;99.90;;;;;;5131113;27;20650;-88
2020/12/07 05:05:54;;;;;;;13.50;10.57;;;3.70;99.90;;;;;;5133360;27;20722;-88
2020/12/07 05:08:20;;;;;;;12.00;10.73;;;3.60;99.90;;;;;;5123086;27;20607;-89
2020/12/07 05:10:49;;;;;;;11.10;9.90;;;3.50;99.90;;;;;;5126490;27;20654;-89
2020/12/07 05:13:24;;;;;;;8.53;7.77;;;3.50;99.90;;;;;;5133121;27;21265;-88
2020/12/07 05:15:50;;;;;;;9.90;8.90;;;3.50;99.90;;;;;;5139260;27;20606;-89
2020/12/07 05:18:17;;;;;;;19.87;12.60;;;3.60;99.90;;;;;;5129666;27;20637;-89
2020/12/07 05:20:48;;;;;;;38.20;25.10;;;3.60;99.90;;;;;;5125220;27;20742;-89
2020/12/07 05:23:16;;;;;;;27.37;19.30;;;3.50;99.90;;;;;;5124744;27;21398;-88
2020/12/07 05:25:44;;;;;;;24.67;19.17;;;3.50;99.90;;;;;;5128737;27;20982;-89
2020/12/07 05:28:15;;;;;;;23.47;18.47;;;3.50;99.90;;;;;;5139692;27;20635;-89
2020/12/07 05:30:45;;;;;;;18.33;14.77;;;3.50;99.90;;;;;;5139136;27;20652;-91
2020/12/07 05:33:12;;;;;;;40.57;32.30;;;3.50;99.90;;;;;;5134683;27;20680;-89
2020/12/07 05:35:45;;;;;;;24.83;19.43;;;3.50;99.90;;;;;;5138656;27;20619;-88
2020/12/07 05:38:11;;;;;;;21.73;17.03;;;3.50;99.90;;;;;;5131297;27;20666;-88
2020/12/07 05:40:38;;;;;;;17.30;15.07;;;3.50;99.90;;;;;;5130093;27;20676;-89
2020/12/07 05:43:05;;;;;;;26.17;22.33;;;3.50;99.90;;;;;;5134650;27;20702;-88
2020/12/07 05:45:31;;;;;;;15.90;13.77;;;3.50;99.90;;;;;;5107616;27;20644;-88
2020/12/07 05:48:00;;;;;;;8.37;7.60;;;3.40;99.90;;;;;;5130060;27;20646;-88
2020/12/07 05:50:27;;;;;;;7.33;6.63;;;3.50;99.90;;;;;;5143862;27;20671;-87
2020/12/07 05:52:58;;;;;;;6.37;5.73;;;3.50;99.90;;;;;;5152310;27;20646;-88
2020/12/07 05:55:26;;;;;;;7.33;6.63;;;3.60;99.90;;;;;;5150949;27;20654;-88
2020/12/07 05:58:03;;;;;;;6.47;5.87;;;3.60;99.90;;;;;;5130209;27;20652;-88
2020/12/07 06:00:31;;;;;;;7.10;6.40;;;3.60;99.90;;;;;;5145027;27;20710;-89
2020/12/07 06:03:00;;;;;;;6.87;6.23;;;3.50;99.90;;;;;;5145810;27;20637;-88
2020/12/07 06:05:26;;;;;;;5.33;4.83;;;3.50;99.90;;;;;;5149551;27;20639;-89
2020/12/07 06:07:59;;;;;;;5.10;4.70;;;3.50;99.90;;;;;;5152689;27;20639;-88
2020/12/07 06:10:35;;;;;;;5.30;4.80;;;3.60;99.90;;;;;;5150238;27;20622;-88
2020/12/07 06:13:05;;;;;;;5.03;4.13;;;3.50;99.90;;;;;;5151549;27;21085;-89
2020/12/07 06:15:32;;;;;;;4.70;4.30;;;3.50;99.90;;;;;;5154281;27;20703;-89
2020/12/07 06:18:01;;;;;;;5.50;5.00;;;3.40;99.90;;;;;;5144266;27;20633;-89
2020/12/07 06:20:29;;;;;;;5.23;4.73;;;3.40;99.90;;;;;;5132702;27;20611;-89
2020/12/07 06:23:00;;;;;;;5.33;4.27;;;3.40;99.90;;;;;;5129036;27;20672;-89
2020/12/07 06:25:29;;;;;;;5.23;4.83;;;3.40;99.90;;;;;;5125031;27;20623;-89
2020/12/07 06:27:59;;;;;;;4.50;4.10;;;3.50;99.90;;;;;;5135035;27;20630;-87
2020/12/07 06:30:32;;;;;;;4.43;4.13;;;3.50;99.90;;;;;;5127146;27;20610;-88
2020/12/07 06:33:03;;;;;;;4.83;4.40;;;3.50;99.90;;;;;;5135246;27;20711;-89
2020/12/07 06:35:30;;;;;;;6.77;6.17;;;3.60;99.90;;;;;;5127677;27;20633;-90
2020/12/07 06:38:02;;;;;;;5.50;5.07;;;3.70;99.90;;;;;;5138109;27;21310;-89
2020/12/07 06:40:30;;;;;;;5.90;5.40;;;3.70;99.90;;;;;;5131939;27;20633;-90
2020/12/07 06:42:58;;;;;;;5.90;5.30;;;3.70;99.90;;;;;;5121975;27;20634;-90
2020/12/07 06:45:30;;;;;;;4.93;4.53;;;3.70;99.90;;;;;;5129306;27;20622;-89
2020/12/07 06:48:05;;;;;;;6.00;5.50;;;3.70;99.90;;;;;;5130204;27;20651;-89
2020/12/07 06:50:37;;;;;;;6.33;5.73;;;3.80;99.90;;;;;;5129041;27;20595;-90
2020/12/07 06:53:19;;;;;;;6.83;5.87;;;3.80;99.90;;;;;;5127541;27;20707;-89
2020/12/07 06:55:46;;;;;;;6.33;5.83;;;3.80;99.90;;;;;;5131446;27;20650;-90
2020/12/07 06:58:28;;;;;;;6.27;5.77;;;3.80;99.90;;;;;;5130203;27;20655;-91
2020/12/07 07:00:56;;;;;;;6.40;5.83;;;3.80;99.90;;;;;;5131742;27;22486;-88
2020/12/07 07:03:22;;;;;;;6.93;5.50;;;3.80;99.90;;;;;;5135362;27;20674;-90
2020/12/07 07:05:49;;;;;;;5.70;5.10;;;3.80;99.90;;;;;;5139756;27;20699;-88
2020/12/07 07:08:17;;;;;;;7.27;6.63;;;3.80;99.90;;;;;;5139544;27;20656;-90
2020/12/07 07:10:43;;;;;;;6.00;5.47;;;3.80;99.90;;;;;;5142794;27;20676;-91
2020/12/07 07:13:12;;;;;;;5.90;5.30;;;3.80;99.90;;;;;;5146678;27;20654;-90
2020/12/07 07:15:41;;;;;;;5.30;4.70;;;3.80;99.90;;;;;;5140927;27;20631;-89
2020/12/07 07:18:08;;;;;;;5.03;4.63;;;3.70;99.90;;;;;;5145486;27;20804;-90
2020/12/07 07:20:34;;;;;;;6.63;5.40;;;3.80;99.90;;;;;;5146755;27;20705;-91
2020/12/07 07:23:02;;;;;;;8.70;7.90;;;3.90;99.90;;;;;;5141313;27;20661;-89
2020/12/07 07:25:48;;;;;;;7.13;6.43;;;4.00;99.90;;;;;;5121495;27;20623;-90
2020/12/07 07:28:17;;;;;;;6.90;6.30;;;4.10;99.90;;;;;;5141972;27;20661;-90
2020/12/07 07:30:44;;;;;;;5.60;5.20;;;4.10;99.90;;;;;;5122275;27;21213;-90
2020/12/07 07:33:10;;;;;;;5.20;4.80;;;4.00;99.90;;;;;;5135622;27;21289;-91
2020/12/07 07:35:37;;;;;;;5.30;4.80;;;3.90;99.90;;;;;;5138313;27;20745;-91
2020/12/07 07:38:05;;;;;;;6.20;5.70;;;3.90;99.90;;;;;;5136277;27;20661;-91
2020/12/07 07:40:32;;;;;;;5.80;5.20;;;4.00;99.90;;;;;;5140549;27;20692;-91
2020/12/07 07:43:01;;;;;;;5.20;4.70;;;3.90;99.90;;;;;;5131689;27;20661;-91
2020/12/07 07:45:31;;;;;;;5.40;4.90;;;3.90;99.90;;;;;;5133408;27;20631;-90
2020/12/07 07:48:03;;;;;;;5.23;4.40;;;4.00;99.90;;;;;;5135266;27;20631;-90
2020/12/07 07:50:52;;;;;;;6.70;5.73;;;4.00;99.90;;;;;;5128531;27;20627;-91
2020/12/07 07:59:57;;;;;;;5.87;5.27;;;4.30;99.90;;;;;;5128366;27;20610;-91
2020/12/07 08:11:41;;;;;;;5.63;5.13;;;4.70;99.90;;;;;;5131281;27;20586;-91
2020/12/07 08:16:39;;;;;;;5.33;4.83;;;5.20;99.90;;;;;;5127772;27;20629;-92
2020/12/07 08:19:21;;;;;;;6.07;5.47;;;5.10;99.90;;;;;;5128538;27;20989;-92
2020/12/07 08:21:47;;;;;;;5.80;5.30;;;5.40;99.90;;;;;;5136979;27;20977;-91
2020/12/07 08:24:13;;;;;;;6.57;5.80;;;5.40;99.90;;;;;;5137038;27;20623;-91
2020/12/07 08:26:44;;;;;;;6.00;5.40;;;5.60;99.90;;;;;;5132014;27;20656;-92
2020/12/07 08:29:11;;;;;;;5.83;5.43;;;5.70;99.90;;;;;;5125221;27;21160;-92
2020/12/07 08:31:39;;;;;;;9.03;5.77;;;5.70;99.90;;;;;;5159175;27;20811;-90
2020/12/07 08:34:11;;;;;;;5.27;4.77;;;5.70;99.90;;;;;;5153226;27;21007;-90
2020/12/07 08:36:39;;;;;;;5.43;4.93;;;5.70;99.90;;;;;;5143212;27;20686;-91
2020/12/07 08:39:07;;;;;;;6.00;5.33;;;5.90;99.90;;;;;;5151891;27;20623;-91
2020/12/07 08:41:34;;;;;;;5.80;5.20;;;5.70;99.90;;;;;;5153871;27;20645;-92
2020/12/07 08:44:03;;;;;;;6.43;5.77;;;5.90;99.90;;;;;;5141856;27;20651;-91
2020/12/07 08:46:33;;;;;;;5.47;4.97;;;6.10;99.90;;;;;;5132883;27;20954;-91
2020/12/07 08:49:02;;;;;;;6.27;5.03;;;6.30;99.90;;;;;;5130789;27;20609;-91
2020/12/07 08:51:31;;;;;;;4.77;4.37;;;6.30;99.90;;;;;;5130768;27;20648;-91
2020/12/07 08:53:59;;;;;;;7.40;5.00;;;6.60;99.90;;;;;;5126684;27;20654;-92
2020/12/07 08:56:26;;;;;;;5.80;5.30;;;6.60;99.90;;;;;;5135032;27;20625;-91
2020/12/07 08:58:52;;;;;;;5.57;5.07;;;6.70;99.90;;;;;;5134417;27;20625;-91
2020/12/07 09:01:20;;;;;;;5.30;4.90;;;6.80;99.90;;;;;;5137257;27;20690;-91
2020/12/07 09:03:47;;;;;;;6.40;4.13;;;6.80;99.90;;;;;;5133262;27;20686;-91
2020/12/07 09:06:16;;;;;;;4.60;4.20;;;6.90;99.90;;;;;;5136517;27;20642;-91
2020/12/07 09:08:42;;;;;;;4.03;3.73;;;6.90;99.90;;;;;;5141104;27;20602;-92
2020/12/07 09:11:12;;;;;;;3.93;3.63;;;6.90;99.90;;;;;;5154161;27;20631;-92
2020/12/07 09:13:39;;;;;;;4.20;3.90;;;6.90;99.90;;;;;;5135817;27;20703;-92
2020/12/07 09:16:07;;;;;;;4.63;4.23;;;6.80;99.90;;;;;;5131819;27;20651;-92
2020/12/07 09:18:34;;;;;;;5.80;5.20;;;7.00;99.90;;;;;;5131592;27;20653;-91
2020/12/07 09:21:03;;;;;;;4.00;3.60;;;6.80;99.90;;;;;;5133772;27;20657;-91
2020/12/07 09:23:30;;;;;;;5.30;4.90;;;6.80;99.90;;;;;;5131240;27;20625;-92
2020/12/07 09:25:58;;;;;;;4.50;4.10;;;6.80;99.90;;;;;;5140300;27;20630;-92
2020/12/07 09:28:27;;;;;;;5.57;4.03;;;6.90;99.90;;;;;;5133576;27;20623;-94
2020/12/07 09:31:00;;;;;;;4.40;4.10;;;7.10;99.90;;;;;;5137761;27;20650;-92
2020/12/07 09:33:27;;;;;;;3.50;3.03;;;7.20;99.90;;;;;;5139222;27;20689;-92
2020/12/07 09:35:55;;;;;;;4.13;3.83;;;6.80;99.90;;;;;;5135919;27;20654;-94
2020/12/07 09:38:23;;;;;;;4.90;4.50;;;6.90;99.90;;;;;;5117640;27;20635;-92
2020/12/07 09:40:51;;;;;;;5.53;4.93;;;7.30;99.90;;;;;;5129535;27;21297;-91
2020/12/07 09:43:17;;;;;;;6.93;3.53;;;7.50;99.90;;;;;;5130725;27;20662;-90
2020/12/07 09:45:44;;;;;;;4.00;3.70;;;7.50;99.90;;;;;;5109194;27;20644;-90
2020/12/07 09:48:10;;;;;;;5.93;4.90;;;7.40;99.90;;;;;;5131224;27;20674;-89
2020/12/07 09:50:37;;;;;;;5.00;4.30;;;7.30;99.90;;;;;;5133720;27;20619;-89
2020/12/07 09:53:08;;;;;;;4.77;4.37;;;7.30;99.90;;;;;;5129032;27;20678;-90
2020/12/07 09:55:34;;;;;;;3.80;3.50;;;7.60;99.90;;;;;;5130677;27;20638;-89
2020/12/07 09:58:00;;;;;;;6.10;4.10;;;7.70;99.90;;;;;;5128416;27;20653;-89
2020/12/07 10:00:27;;;;;;;4.40;3.60;;;7.80;99.90;;;;;;5129862;27;20644;-90
2020/12/07 10:02:53;;;;;;;4.10;3.47;;;7.90;99.90;;;;;;5131373;27;20621;-88
2020/12/07 10:05:20;;;;;;;4.30;3.90;;;7.90;99.90;;;;;;5127600;27;20636;-87
2020/12/07 10:07:47;;;;;;;3.93;3.57;;;8.00;99.90;;;;;;5130351;27;21029;-88
2020/12/07 10:10:14;;;;;;;3.40;3.10;;;8.10;99.90;;;;;;5128113;27;21023;-87
2020/12/07 10:12:40;;;;;;;3.57;3.27;;;8.40;99.90;;;;;;5126086;27;21212;-87
2020/12/07 10:15:07;;;;;;;6.80;3.67;;;8.10;99.90;;;;;;5125738;27;20634;-87
2020/12/07 10:17:33;;;;;;;4.00;3.50;;;7.60;99.90;;;;;;5129433;27;20649;-87
2020/12/07 10:20:00;;;;;;;6.23;3.53;;;7.60;99.90;;;;;;5128350;27;20650;-87
2020/12/07 10:22:26;;;;;;;3.60;3.30;;;8.00;99.90;;;;;;5126103;27;20648;-86
2020/12/07 10:24:53;;;;;;;5.47;3.20;;;8.20;99.90;;;;;;5129249;27;20615;-86
2020/12/07 10:27:20;;;;;;;3.30;3.00;;;8.30;99.90;;;;;;5122411;27;20969;-87
2020/12/07 10:29:46;;;;;;;4.17;3.13;;;8.00;99.90;;;;;;5130485;27;20700;-87
2020/12/07 10:32:12;;;;;;;3.90;3.57;;;7.60;99.90;;;;;;5126466;27;20670;-86
2020/12/07 10:34:39;;;;;;;3.77;3.47;;;7.60;99.90;;;;;;5127098;27;20643;-88
2020/12/07 10:37:06;;;;;;;3.97;3.67;;;7.80;99.90;;;;;;5135639;27;20631;-88
2020/12/07 10:39:33;;;;;;;4.53;3.37;;;7.80;99.90;;;;;;5134786;27;20625;-88
2020/12/07 10:42:00;;;;;;;3.40;3.07;;;8.10;99.90;;;;;;5124713;27;20659;-88
2020/12/07 10:44:28;;;;;;;5.13;3.50;;;8.50;99.90;;;;;;5126103;27;20614;-88
2020/12/07 10:46:54;;;;;;;3.30;3.00;;;8.10;99.90;;;;;;5127625;27;20638;-88
2020/12/07 10:49:21;;;;;;;3.50;3.20;;;8.40;99.90;;;;;;5120812;27;21048;-88
2020/12/07 10:51:48;;;;;;;3.27;2.97;;;8.60;99.90;;;;;;5129117;27;21238;-89
2020/12/07 10:54:14;;;;;;;4.30;3.93;;;8.90;99.90;;;;;;5104344;27;20641;-87
2020/12/07 10:56:43;;;;;;;3.27;2.97;;;8.90;99.90;;;;;;5124546;27;20624;-87
2020/12/07 10:59:10;;;;;;;3.10;2.67;;;8.50;99.90;;;;;;5128068;27;20631;-87
2020/12/07 11:01:37;;;;;;;4.40;3.30;;;7.90;99.90;;;;;;5126958;27;20653;-88
2020/12/07 11:04:03;;;;;;;3.40;3.10;;;8.00;99.90;;;;;;5130380;27;20625;-88
2020/12/07 11:06:32;;;;;;;3.43;2.63;;;8.20;99.90;;;;;;5123791;27;20719;-88
2020/12/07 11:08:59;;;;;;;4.57;3.23;;;8.40;99.90;;;;;;5121089;27;20638;-88
2020/12/07 11:11:27;;;;;;;3.07;2.83;;;9.00;99.90;;;;;;5123753;27;20653;-87
2020/12/07 11:13:53;;;;;;;2.70;2.50;;;9.20;99.90;;;;;;5124544;27;20665;-88
2020/12/07 11:16:29;;;;;;;5.70;3.03;;;9.10;99.90;;;;;;5127280;27;20627;-88
2020/12/07 11:18:56;;;;;;;5.00;2.87;;;9.20;99.90;;;;;;5125861;27;20643;-88
2020/12/07 11:21:22;;;;;;;3.13;2.93;;;9.60;99.90;;;;;;5108688;27;20653;-88
2020/12/07 11:23:49;;;;;;;3.67;3.17;;;9.50;99.90;;;;;;5107174;27;20635;-88
2020/12/07 11:26:17;;;;;;;3.43;3.13;;;9.80;99.90;;;;;;5126781;27;20981;-88
2020/12/07 11:28:44;;;;;;;2.80;2.60;;;10.10;99.00;;;;;;5125063;27;20619;-89
2020/12/07 11:31:11;;;;;;;4.23;3.30;;;10.00;98.60;;;;;;5131407;27;20651;-89
2020/12/07 11:33:38;;;;;;;3.13;2.80;;;9.10;99.90;;;;;;5128481;27;20674;-88
2020/12/07 11:36:05;;;;;;;3.37;3.07;;;8.90;99.90;;;;;;5134308;27;20622;-87
2020/12/07 11:38:34;;;;;;;3.37;3.07;;;8.40;99.90;;;;;;5122012;27;20622;-90
2020/12/07 11:43:48;;;;;;;4.00;3.70;;;8.30;99.90;;;;;;5117632;27;20648;-87
2020/12/07 11:46:21;;;;;;;3.13;2.87;;;8.20;99.90;;;;;;5128322;27;20623;-88
2020/12/07 11:48:47;;;;;;;3.40;3.10;;;7.90;99.90;;;;;;5125159;27;20627;-89
2020/12/07 11:51:15;;;;;;;3.70;2.60;;;7.80;99.90;;;;;;5125321;27;20738;-88
2020/12/07 11:53:41;;;;;;;4.10;3.30;;;7.70;99.90;;;;;;5125785;27;20647;-88
2020/12/07 11:56:08;;;;;;;6.57;4.93;;;7.80;99.90;;;;;;5131789;27;20729;-88
2020/12/07 11:58:34;;;;;;;4.30;4.00;;;7.90;99.90;;;;;;5126474;27;20628;-88
2020/12/07 12:01:00;;;;;;;3.63;3.33;;;7.90;99.90;;;;;;5122649;27;21313;-88
2020/12/07 12:03:27;;;;;;;5.10;3.50;;;7.90;99.90;;;;;;5127465;27;21185;-88
2020/12/07 12:05:55;;;;;;;3.77;3.37;;;7.80;99.90;;;;;;5125996;27;20627;-88
2020/12/07 12:08:22;;;;;;;3.10;2.80;;;7.60;99.90;;;;;;5126580;27;20986;-89
2020/12/07 12:10:49;;;;;;;3.53;3.23;;;7.60;99.90;;;;;;5134866;27;20636;-88
2020/12/07 12:13:15;;;;;;;3.50;3.20;;;7.50;99.90;;;;;;5138545;27;20666;-88
2020/12/07 12:15:42;;;;;;;3.57;3.27;;;7.60;99.90;;;;;;5137046;27;20614;-88
2020/12/07 12:18:08;;;;;;;3.30;3.10;;;7.60;99.90;;;;;;5124019;27;20634;-88
2020/12/07 12:20:37;;;;;;;3.97;3.67;;;7.60;99.90;;;;;;5133077;27;20615;-89
2020/12/07 12:23:03;;;;;;;3.00;2.80;;;7.60;99.90;;;;;;5132834;27;20691;-88
2020/12/07 12:25:31;;;;;;;3.70;3.00;;;7.40;99.90;;;;;;5132558;27;20618;-87
2020/12/07 12:27:57;;;;;;;3.43;3.17;;;7.30;99.90;;;;;;5133109;27;20644;-88
2020/12/07 12:30:24;;;;;;;3.40;3.10;;;7.20;99.90;;;;;;5129615;27;20624;-87
2020/12/07 12:32:50;;;;;;;3.23;2.93;;;7.20;99.90;;;;;;5129292;27;20683;-86
2020/12/07 12:35:16;;;;;;;3.03;2.80;;;7.00;99.90;;;;;;5132633;27;20619;-86
2020/12/07 12:37:42;;;;;;;4.93;3.53;;;6.80;99.90;;;;;;5132272;27;20618;-87
2020/12/07 12:40:09;;;;;;;3.27;3.00;;;6.70;99.90;;;;;;5132534;27;20657;-87
2020/12/07 12:42:37;;;;;;;3.23;3.03;;;6.80;99.90;;;;;;5129107;27;20643;-87
2020/12/07 12:45:03;;;;;;;3.53;3.13;;;6.90;99.90;;;;;;5131931;27;21045;-87
2020/12/07 12:47:30;;;;;;;3.47;3.17;;;6.90;99.90;;;;;;5134210;27;20622;-88
2020/12/07 12:49:56;;;;;;;3.20;2.90;;;6.80;99.90;;;;;;5130382;27;20629;-88
2020/12/07 12:52:23;;;;;;;3.80;3.10;;;6.80;99.90;;;;;;5125421;27;20761;-88
2020/12/07 12:54:49;;;;;;;3.27;3.07;;;6.80;99.90;;;;;;5128401;27;20637;-87
2020/12/07 12:57:15;;;;;;;2.60;2.40;;;6.80;99.90;;;;;;5128789;27;21036;-86
2020/12/07 12:59:42;;;;;;;3.23;3.03;;;6.50;99.90;;;;;;5129299;27;20668;-86
2020/12/07 13:02:08;;;;;;;3.40;2.67;;;6.50;99.90;;;;;;5128074;27;20646;-86
2020/12/07 13:04:35;;;;;;;3.30;3.00;;;6.80;99.90;;;;;;5126804;27;20676;-88
2020/12/07 13:07:01;;;;;;;2.80;2.60;;;7.00;99.90;;;;;;5129981;27;21172;-87
2020/12/07 13:09:28;;;;;;;2.60;2.40;;;7.10;99.90;;;;;;5126591;27;21162;-87
2020/12/07 13:11:54;;;;;;;3.80;2.57;;;7.30;99.90;;;;;;5129392;27;20707;-88
2020/12/07 13:14:20;;;;;;;2.47;2.27;;;7.60;99.90;;;;;;5126099;27;20661;-88
2020/12/07 13:16:57;;;;;;;3.50;2.00;;;7.90;99.90;;;;;;5128820;27;21144;-87
2020/12/07 13:19:24;;;;;;;2.63;2.43;;;8.00;99.90;;;;;;5128505;27;20584;-87